createdAt,value
2015-12-23T00:00:39.262Z,71.26
2015-12-23T00:01:39.328Z,70.78
2015-12-23T00:02:39.081Z,71.17
2015-12-23T00:03:39.068Z,70.78
2015-12-23T00:04:39.008Z,70.78
2015-12-23T00:05:38.980Z,71.08
2015-12-23T00:06:38.967Z,70.78
2015-12-23T00:07:38.939Z,71.36
2015-12-23T00:08:38.894Z,71.17
2015-12-23T00:09:38.881Z,72.61
2015-12-23T00:10:38.853Z,72.9
2015-12-23T00:11:38.808Z,72.26
2015-12-23T00:12:38.780Z,72.42
2015-12-23T00:13:38.752Z,72.65
2015-12-23T00:14:38.739Z,72.23
2015-12-23T00:15:38.725Z,72.52
2015-12-23T00:16:38.697Z,72.03
2015-12-23T00:17:38.653Z,71.55
2015-12-23T00:18:38.624Z,71.26
2015-12-23T00:19:38.611Z,70.98
2015-12-23T00:20:38.583Z,71.75
2015-12-23T00:21:38.555Z,71.26
2015-12-23T00:22:38.511Z,71.75
2015-12-23T00:23:38.497Z,71.84
2015-12-23T00:24:38.453Z,70.98
2015-12-23T00:25:38.424Z,71.55
2015-12-23T00:26:38.381Z,71.26
2015-12-23T00:27:38.369Z,71.65
2015-12-23T00:28:38.324Z,71.17
2015-12-23T00:29:38.327Z,71.08
2015-12-23T00:30:38.282Z,71.46
2015-12-23T00:31:38.254Z,71.46
2015-12-23T00:32:38.225Z,71.75
2015-12-23T00:33:38.181Z,71.46
2015-12-23T00:34:38.199Z,71.26
2015-12-23T00:35:38.202Z,71.46
2015-12-23T00:36:38.111Z,71.46
2015-12-23T00:37:38.083Z,71.46
2015-12-23T00:38:38.196Z,71.55
2015-12-23T00:39:38.026Z,71.65
2015-12-23T00:40:38.012Z,71.46
2015-12-23T00:41:37.954Z,71.26
2015-12-23T00:42:37.940Z,71.65
2015-12-23T00:43:37.959Z,71.46
2015-12-23T00:44:37.883Z,71.65
2015-12-23T00:45:37.839Z,71.55
2015-12-23T00:46:37.060Z,71.17
2015-12-23T00:47:37.798Z,71.65
2015-12-23T00:48:37.769Z,71.65
2015-12-23T00:49:37.723Z,71.84
2015-12-23T00:50:37.709Z,71.75
2015-12-23T00:51:37.681Z,71.65
2015-12-23T00:52:37.637Z,71.26
2015-12-23T00:53:37.609Z,71.46
2015-12-23T00:54:37.595Z,71.26
2015-12-23T00:55:37.587Z,71.55
2015-12-23T00:56:37.585Z,71.36
2015-12-23T00:57:37.745Z,71.17
2015-12-23T00:58:37.513Z,71.26
2015-12-23T00:59:37.468Z,71.08
2015-12-23T01:00:37.517Z,71.08
2015-12-23T01:01:37.489Z,71.36
2015-12-23T01:02:37.679Z,71.08
2015-12-23T01:03:37.556Z,70.98
2015-12-23T01:04:37.700Z,71.26
2015-12-23T01:05:37.750Z,71.36
2015-12-23T01:06:37.362Z,71.08
2015-12-23T01:07:37.459Z,70.78
2015-12-23T01:08:37.664Z,70.88
2015-12-23T01:09:37.762Z,70.88
2015-12-23T01:10:37.624Z,70.98
2015-12-23T01:11:37.283Z,70.59
2015-12-23T01:12:37.332Z,71.08
2015-12-23T01:13:37.289Z,70.78
2015-12-23T01:14:37.213Z,70.88
2015-12-23T01:15:37.231Z,70.98
2015-12-23T01:16:37.172Z,70.98
2015-12-23T01:17:37.142Z,70.88
2015-12-23T01:18:37.302Z,71.17
2015-12-23T01:19:37.305Z,70.98
2015-12-23T01:20:36.963Z,70.88
2015-12-23T01:21:37.060Z,70.68
2015-12-23T01:22:36.985Z,70.78
2015-12-23T01:23:37.003Z,70.59
2015-12-23T01:24:36.881Z,71.17
2015-12-23T01:25:36.836Z,71.08
2015-12-23T01:26:37.137Z,70.98
2015-12-23T01:27:36.827Z,70.59
2015-12-23T01:28:36.814Z,70.5
2015-12-23T01:29:36.785Z,70.98
2015-12-23T01:30:36.194Z,71.08
2015-12-23T01:31:36.791Z,70.4
2015-12-23T01:32:36.699Z,70.68
2015-12-23T01:33:37.374Z,70.68
2015-12-23T01:34:37.283Z,71.08
2015-12-23T01:35:40.583Z,70.59
2015-12-23T01:36:36.789Z,70.59
2015-12-23T01:37:36.588Z,70.59
2015-12-23T01:38:36.701Z,70.5
2015-12-23T01:39:36.672Z,70.5
2015-12-23T01:40:36.563Z,70.59
2015-12-23T01:41:36.408Z,71.17
2015-12-23T01:42:36.412Z,70.68
2015-12-23T01:43:36.399Z,71.17
2015-12-23T01:44:36.574Z,71.08
2015-12-23T01:45:36.561Z,70.3
2015-12-23T01:46:36.266Z,70.59
2015-12-23T01:47:36.222Z,70.4
2015-12-23T01:48:36.069Z,70.4
2015-12-23T01:49:36.009Z,70.3
2015-12-23T01:50:35.980Z,70.11
2015-12-23T01:51:36.171Z,70.4
2015-12-23T01:52:35.939Z,70.21
2015-12-23T01:53:35.895Z,70.3
2015-12-23T01:54:35.882Z,70.3
2015-12-23T01:55:35.838Z,70.3
2015-12-23T01:56:35.824Z,70.3
2015-12-23T01:57:35.796Z,70.21
2015-12-23T01:58:35.752Z,70.4
2015-12-23T01:59:35.740Z,70.68
2015-12-23T02:00:35.695Z,70.3
2015-12-23T02:01:35.667Z,70.5
2015-12-23T02:02:35.654Z,70.4
2015-12-23T02:03:35.641Z,70.5
2015-12-23T02:04:35.596Z,70.4
2015-12-23T02:05:35.632Z,70.3
2015-12-23T02:06:35.774Z,70.59
2015-12-23T02:07:36.012Z,70.3
2015-12-23T02:08:35.952Z,70.21
2015-12-23T02:09:35.704Z,70.4
2015-12-23T02:10:35.817Z,70.21
2015-12-23T02:11:35.398Z,70.4
2015-12-23T02:12:35.368Z,70.3
2015-12-23T02:13:35.341Z,70.3
2015-12-23T02:14:35.297Z,70.4
2015-12-23T02:15:35.284Z,70.3
2015-12-23T02:16:35.255Z,70.5
2015-12-23T02:17:35.242Z,70.5
2015-12-23T02:18:35.182Z,70.11
2015-12-23T02:19:35.154Z,70.68
2015-12-23T02:20:35.266Z,70.4
2015-12-23T02:21:35.112Z,70.3
2015-12-23T02:22:35.084Z,70.5
2015-12-23T02:23:35.071Z,70.01
2015-12-23T02:24:35.026Z,70.3
2015-12-23T02:25:35.218Z,70.3
2015-12-23T02:26:34.968Z,70.5
2015-12-23T02:27:35.048Z,70.01
2015-12-23T02:28:34.973Z,69.92
2015-12-23T02:29:34.959Z,70.21
2015-12-23T02:30:34.869Z,70.4
2015-12-23T02:31:34.810Z,70.3
2015-12-23T02:32:34.781Z,70.68
2015-12-23T02:33:34.768Z,70.3
2015-12-23T02:34:34.724Z,70.11
2015-12-23T02:35:34.695Z,70.4
2015-12-23T02:36:34.667Z,70.3
2015-12-23T02:37:34.654Z,70.21
2015-12-23T02:38:34.642Z,70.59
2015-12-23T02:39:34.597Z,70.3
2015-12-23T02:40:34.568Z,70.59
2015-12-23T02:41:34.539Z,70.68
2015-12-23T02:42:34.511Z,70.21
2015-12-23T02:43:34.484Z,69.82
2015-12-23T02:44:34.454Z,70.59
2015-12-23T02:45:34.425Z,70.21
2015-12-23T02:46:34.397Z,70.01
2015-12-23T02:47:34.353Z,70.59
2015-12-23T02:48:34.324Z,70.11
2015-12-23T02:49:34.327Z,70.5
2015-12-23T02:50:34.284Z,69.92
2015-12-23T02:51:34.458Z,70.21
2015-12-23T02:52:34.226Z,70.5
2015-12-23T02:53:34.198Z,69.92
2015-12-23T02:54:34.185Z,69.73
2015-12-23T02:55:34.203Z,70.01
2015-12-23T02:56:34.097Z,70.68
2015-12-23T02:57:34.068Z,70.4
2015-12-23T02:58:34.259Z,70.11
2015-12-23T02:59:34.011Z,70.01
2015-12-23T03:00:33.983Z,69.82
2015-12-23T03:01:33.970Z,69.82
2015-12-23T03:02:33.961Z,70.21
2015-12-23T03:03:33.746Z,70.21
2015-12-23T03:04:33.874Z,70.21
2015-12-23T03:05:33.845Z,69.92
2015-12-23T03:06:33.816Z,70.21
2015-12-23T03:07:33.789Z,69.82
2015-12-23T03:08:33.760Z,70.01
2015-12-23T03:09:33.746Z,70.01
2015-12-23T03:10:33.699Z,70.11
2015-12-23T03:11:33.671Z,70.4
2015-12-23T03:12:33.643Z,70.3
2015-12-23T03:13:33.629Z,70.01
2015-12-23T03:14:33.710Z,70.11
2015-12-23T03:15:33.557Z,69.82
2015-12-23T03:16:33.529Z,69.92
2015-12-23T03:17:33.516Z,69.92
2015-12-23T03:18:33.472Z,70.3
2015-12-23T03:19:33.443Z,70.59
2015-12-23T03:20:33.414Z,70.11
2015-12-23T03:21:33.386Z,70.3
2015-12-23T03:22:33.468Z,70.01
2015-12-23T03:23:33.360Z,69.82
2015-12-23T03:24:33.301Z,70.3
2015-12-23T03:25:33.288Z,70.11
2015-12-23T03:26:33.243Z,70.21
2015-12-23T03:27:33.215Z,70.3
2015-12-23T03:28:33.187Z,70.01
2015-12-23T03:29:33.157Z,69.73
2015-12-23T03:30:33.129Z,70.17
2015-12-23T03:31:33.132Z,69.92
2015-12-23T03:32:33.104Z,70.01
2015-12-23T03:33:33.043Z,69.53
2015-12-23T03:34:33.015Z,70.01
2015-12-23T03:35:32.831Z,69.82
2015-12-23T03:36:32.974Z,69.92
2015-12-23T03:37:32.929Z,70.01
2015-12-23T03:38:32.901Z,69.82
2015-12-23T03:39:32.873Z,69.92
2015-12-23T03:40:32.876Z,70.17
2015-12-23T03:41:32.815Z,70.11
2015-12-23T03:42:32.787Z,70.01
2015-12-23T03:43:32.759Z,70.3
2015-12-23T03:44:32.746Z,70.17
2015-12-23T03:45:32.701Z,69.92
2015-12-23T03:46:32.674Z,69.82
2015-12-23T03:47:32.645Z,69.82
2015-12-23T03:48:32.617Z,69.69
2015-12-23T03:49:32.588Z,69.98
2015-12-23T03:50:32.575Z,69.79
2015-12-23T03:51:32.531Z,69.92
2015-12-23T03:52:32.503Z,70.07
2015-12-23T03:53:32.318Z,69.82
2015-12-23T03:54:32.462Z,69.73
2015-12-23T03:55:32.433Z,69.82
2015-12-23T03:56:32.404Z,69.63
2015-12-23T03:57:32.360Z,69.63
2015-12-23T03:58:32.331Z,69.63
2015-12-23T03:59:32.303Z,69.63
2015-12-23T04:00:32.290Z,70.11
2015-12-23T04:01:32.243Z,69.82
2015-12-23T04:02:32.230Z,69.73
2015-12-23T04:03:32.314Z,69.63
2015-12-23T04:04:32.158Z,69.44
2015-12-23T04:05:32.208Z,69.44
2015-12-23T04:06:32.303Z,69.34
2015-12-23T04:07:31.900Z,69.82
2015-12-23T04:08:32.043Z,69.73
2015-12-23T04:09:32.030Z,69.63
2015-12-23T04:10:32.002Z,69.92
2015-12-23T04:11:31.957Z,69.53
2015-12-23T04:12:31.929Z,69.73
2015-12-23T04:13:31.900Z,69.44
2015-12-23T04:14:31.872Z,69.63
2015-12-23T04:15:31.827Z,69.24
2015-12-23T04:16:31.816Z,69.53
2015-12-23T04:17:31.786Z,69.73
2015-12-23T04:18:31.774Z,69.34
2015-12-23T04:19:31.730Z,69.82
2015-12-23T04:20:31.701Z,69.82
2015-12-23T04:21:31.672Z,69.34
2015-12-23T04:22:31.644Z,69.63
2015-12-23T04:23:31.631Z,69.24
2015-12-23T04:24:31.587Z,69.44
2015-12-23T04:25:31.558Z,69.24
2015-12-23T04:26:31.530Z,69.44
2015-12-23T04:27:31.485Z,69.53
2015-12-23T04:28:31.520Z,69.44
2015-12-23T04:29:31.460Z,69.63
2015-12-23T04:30:31.431Z,69.53
2015-12-23T04:31:31.388Z,69.44
2015-12-23T04:32:31.359Z,69.6
2015-12-23T04:33:31.393Z,69.44
2015-12-23T04:34:31.301Z,69.44
2015-12-23T04:35:31.257Z,69.63
2015-12-23T04:36:31.245Z,69.53
2015-12-23T04:37:31.201Z,69.69
2015-12-23T04:38:31.182Z,69.63
2015-12-23T04:39:31.126Z,69.6
2015-12-23T04:40:31.178Z,69.44
2015-12-23T04:41:31.059Z,69.5
2015-12-23T04:42:31.018Z,69.69
2015-12-23T04:43:30.966Z,69.82
2015-12-23T04:44:30.949Z,69.5
2015-12-23T04:45:30.900Z,69.73
2015-12-23T04:46:30.883Z,69.63
2015-12-23T04:47:30.850Z,69.5
2015-12-23T04:48:30.804Z,69.31
2015-12-23T04:49:30.774Z,69.69
2015-12-23T04:50:30.775Z,69.73
2015-12-23T04:51:30.729Z,69.6
2015-12-23T04:52:30.684Z,69.31
2015-12-23T04:53:30.655Z,69.4
2015-12-23T04:54:30.626Z,69.21
2015-12-23T04:55:30.628Z,69.5
2015-12-23T04:56:30.614Z,69.6
2015-12-23T04:57:30.536Z,69.5
2015-12-23T05:01:29.515Z,69.6
2015-12-23T05:02:20.455Z,69.79
2015-12-23T05:03:20.426Z,70.07
2015-12-23T05:04:20.414Z,69.6
2015-12-23T05:05:20.370Z,69.69
2015-12-23T05:06:20.357Z,69.89
2015-12-23T05:07:20.313Z,69.98
2015-12-23T05:08:20.362Z,69.6
2015-12-23T05:09:20.271Z,70.37
2015-12-23T05:10:20.243Z,69.79
2015-12-23T05:11:20.182Z,69.89
2015-12-23T05:12:20.123Z,69.89
2015-12-23T05:13:20.094Z,69.4
2015-12-23T05:14:20.055Z,69.69
2015-12-23T05:15:20.074Z,69.5
2015-12-23T05:16:19.998Z,69.6
2015-12-23T05:17:19.970Z,70.07
2015-12-23T05:18:19.941Z,70.27
2015-12-23T05:19:19.944Z,69.5
2015-12-23T05:20:19.884Z,70.07
2015-12-23T05:21:19.903Z,69.79
2015-12-23T05:22:19.843Z,69.79
2015-12-23T05:23:19.799Z,69.98
2015-12-23T05:24:19.817Z,69.89
2015-12-23T05:25:19.773Z,70.07
2015-12-23T05:26:19.713Z,70.07
2015-12-23T05:27:19.701Z,69.79
2015-12-23T05:28:19.672Z,69.89
2015-12-23T05:29:19.659Z,69.6
2015-12-23T05:30:19.615Z,69.89
2015-12-23T05:31:19.571Z,70.17
2015-12-23T05:32:19.558Z,69.79
2015-12-23T05:33:19.511Z,69.79
2015-12-23T05:34:19.514Z,69.98
2015-12-23T05:35:19.453Z,69.31
2015-12-23T05:36:19.425Z,69.98
2015-12-23T05:37:19.397Z,69.6
2015-12-23T05:38:19.384Z,69.6
2015-12-23T05:39:19.340Z,69.69
2015-12-23T05:40:19.311Z,69.89
2015-12-23T05:41:19.283Z,69.69
2015-12-23T05:42:19.254Z,69.79
2015-12-23T05:43:19.241Z,70.17
2015-12-23T05:44:19.213Z,69.89
2015-12-23T05:45:19.169Z,70.27
2015-12-23T05:46:21.671Z,69.69
2015-12-23T05:47:19.128Z,69.6
2015-12-23T05:48:19.083Z,70.17
2015-12-23T05:49:19.055Z,69.69
2015-12-23T05:50:19.010Z,69.79
2015-12-23T05:51:18.998Z,69.89
2015-12-23T05:52:18.985Z,69.79
2015-12-23T05:53:18.941Z,69.98
2015-12-23T05:54:18.897Z,70.27
2015-12-23T05:55:18.869Z,69.89
2015-12-23T05:56:18.856Z,69.98
2015-12-23T05:57:18.827Z,69.69
2015-12-23T05:58:18.923Z,69.98
2015-12-23T05:59:18.770Z,69.79
2015-12-23T06:00:18.742Z,69.79
2015-12-23T06:01:18.713Z,69.89
2015-12-23T06:02:18.684Z,69.98
2015-12-23T06:03:18.655Z,69.89
2015-12-23T06:04:18.643Z,69.98
2015-12-23T06:05:18.645Z,69.69
2015-12-23T06:06:18.555Z,69.79
2015-12-23T06:07:18.527Z,69.69
2015-12-23T06:08:18.497Z,69.69
2015-12-23T06:09:18.484Z,69.69
2015-12-23T06:10:18.441Z,69.69
2015-12-23T06:11:18.413Z,69.89
2015-12-23T06:12:18.383Z,69.98
2015-12-23T06:13:18.355Z,69.79
2015-12-23T06:14:18.171Z,69.69
2015-12-23T06:15:18.298Z,69.69
2015-12-23T06:16:18.270Z,69.79
2015-12-23T06:17:18.241Z,69.5
2015-12-23T06:18:18.213Z,69.5
2015-12-23T06:19:18.200Z,69.89
2015-12-23T06:20:18.202Z,70.17
2015-12-23T06:21:18.127Z,69.79
2015-12-23T06:22:18.099Z,69.89
2015-12-23T06:23:18.070Z,69.89
2015-12-23T06:24:18.026Z,69.79
2015-12-23T06:25:18.013Z,69.46
2015-12-23T06:26:17.985Z,69.89
2015-12-23T06:27:17.954Z,69.95
2015-12-23T06:28:17.940Z,69.95
2015-12-23T06:29:17.880Z,70.14
2015-12-23T06:30:17.882Z,70.07
2015-12-23T06:31:18.042Z,69.85
2015-12-23T06:32:17.795Z,69.69
2015-12-23T06:33:17.766Z,70.04
2015-12-23T06:34:17.801Z,70.14
2015-12-23T06:35:17.709Z,69.98
2015-12-23T06:36:17.681Z,69.95
2015-12-23T06:37:17.636Z,69.95
2015-12-23T06:38:17.639Z,69.98
2015-12-23T06:39:17.907Z,69.75
2015-12-23T06:40:17.567Z,70.14
2015-12-23T06:41:17.538Z,69.79
2015-12-23T06:42:17.540Z,69.56
2015-12-23T06:43:17.497Z,69.85
2015-12-23T06:44:17.468Z,69.85
2015-12-23T06:45:17.440Z,70.04
2015-12-23T06:46:17.396Z,69.95
2015-12-23T06:47:17.367Z,69.66
2015-12-23T06:48:17.339Z,70.33
2015-12-23T06:49:17.310Z,69.95
2015-12-23T06:50:17.282Z,70.04
2015-12-23T06:51:17.253Z,70.04
2015-12-23T06:52:17.224Z,69.95
2015-12-23T06:53:17.196Z,69.75
2015-12-23T06:54:17.152Z,69.85
2015-12-23T06:55:17.139Z,69.95
2015-12-23T06:56:17.111Z,69.66
2015-12-23T06:57:17.067Z,69.85
2015-12-23T06:58:17.054Z,70.23
2015-12-23T06:59:17.009Z,69.95
2015-12-23T07:00:16.981Z,69.85
2015-12-23T07:01:16.953Z,69.56
2015-12-23T07:02:16.925Z,70.14
2015-12-23T07:03:16.911Z,69.56
2015-12-23T07:04:16.884Z,69.66
2015-12-23T07:05:16.901Z,70.14
2015-12-23T07:06:16.842Z,69.95
2015-12-23T07:07:16.875Z,70.04
2015-12-23T07:08:16.753Z,70.14
2015-12-23T07:09:16.725Z,70.14
2015-12-23T07:10:16.696Z,69.95
2015-12-23T07:11:16.683Z,69.95
2015-12-23T07:12:16.733Z,69.56
2015-12-23T07:13:16.608Z,69.75
2015-12-23T07:14:16.580Z,69.75
2015-12-23T07:15:16.550Z,69.75
2015-12-23T07:16:16.522Z,69.75
2015-12-23T07:17:16.525Z,69.75
2015-12-23T07:18:16.465Z,69.56
2015-12-23T07:19:16.436Z,69.85
2015-12-23T07:20:16.424Z,69.95
2015-12-23T07:21:16.364Z,70.14
2015-12-23T07:22:16.351Z,70.14
2015-12-23T07:23:16.354Z,69.85
2015-12-23T07:24:16.293Z,69.95
2015-12-23T07:25:16.266Z,70.14
2015-12-23T07:26:16.237Z,70.04
2015-12-23T07:27:16.193Z,69.95
2015-12-23T07:28:16.164Z,69.85
2015-12-23T07:29:16.136Z,69.85
2015-12-23T07:30:16.107Z,70.14
2015-12-23T07:31:16.094Z,70.04
2015-12-23T07:32:16.082Z,69.75
2015-12-23T07:33:16.022Z,69.66
2015-12-23T07:34:15.994Z,69.75
2015-12-23T07:35:15.965Z,69.56
2015-12-23T07:36:15.952Z,69.66
2015-12-23T07:37:15.907Z,69.66
2015-12-23T07:38:15.926Z,69.75
2015-12-23T07:39:15.866Z,69.66
2015-12-23T07:40:15.854Z,69.56
2015-12-23T07:41:15.794Z,69.56
2015-12-23T07:42:15.765Z,69.37
2015-12-23T07:43:15.737Z,69.66
2015-12-23T07:44:15.708Z,69.46
2015-12-23T07:45:15.680Z,69.46
2015-12-23T07:46:15.635Z,69.66
2015-12-23T07:47:15.607Z,69.66
2015-12-23T07:48:15.454Z,69.66
2015-12-23T07:49:15.565Z,69.85
2015-12-23T07:50:15.522Z,69.56
2015-12-23T07:51:15.493Z,69.56
2015-12-23T07:52:15.465Z,69.37
2015-12-23T07:53:15.467Z,69.66
2015-12-23T07:54:15.423Z,69.75
2015-12-23T07:55:15.379Z,69.75
2015-12-23T07:56:15.351Z,69.56
2015-12-23T07:57:15.323Z,69.46
2015-12-23T07:58:15.293Z,69.46
2015-12-23T07:59:15.250Z,69.75
2015-12-23T08:00:15.237Z,69.75
2015-12-23T08:01:15.208Z,69.75
2015-12-23T08:02:15.195Z,69.75
2015-12-23T08:03:15.135Z,69.75
2015-12-23T08:04:15.138Z,69.66
2015-12-23T08:05:15.092Z,69.75
2015-12-23T08:06:15.062Z,69.56
2015-12-23T08:07:15.034Z,69.75
2015-12-23T08:08:15.006Z,69.37
2015-12-23T08:09:14.961Z,69.56
2015-12-23T08:10:14.948Z,69.27
2015-12-23T08:11:15.108Z,69.46
2015-12-23T08:12:14.876Z,69.66
2015-12-23T08:13:14.848Z,69.46
2015-12-23T08:14:14.850Z,69.27
2015-12-23T08:15:14.789Z,69.37
2015-12-23T08:16:14.762Z,69.46
2015-12-23T08:17:14.717Z,69.08
2015-12-23T08:18:14.689Z,69.37
2015-12-23T08:19:14.676Z,69.21
2015-12-23T08:20:14.725Z,68.98
2015-12-23T08:21:14.681Z,69.27
2015-12-23T08:22:14.717Z,69.02
2015-12-23T08:23:14.562Z,69.31
2015-12-23T08:24:14.519Z,69.27
2015-12-23T08:25:14.506Z,69.56
2015-12-23T08:26:14.461Z,69.12
2015-12-23T08:27:14.433Z,69.4
2015-12-23T08:28:14.405Z,69.27
2015-12-23T08:29:14.407Z,69.37
2015-12-23T08:30:14.753Z,69.27
2015-12-23T08:31:14.319Z,69.5
2015-12-23T08:32:14.291Z,69.27
2015-12-23T08:33:14.261Z,69.46
2015-12-23T08:34:14.233Z,69.27
2015-12-23T08:35:14.205Z,69.08
2015-12-23T08:36:14.191Z,69.12
2015-12-23T08:37:14.148Z,69.31
2015-12-23T08:38:14.119Z,69.37
2015-12-23T08:39:14.091Z,69.12
2015-12-23T08:40:14.046Z,69.4
2015-12-23T08:41:14.049Z,69.31
2015-12-23T08:42:14.005Z,69.5
2015-12-23T08:43:13.977Z,69.21
2015-12-23T08:44:13.932Z,69.27
2015-12-23T08:45:13.904Z,69.27
2015-12-23T08:46:13.892Z,69.5
2015-12-23T08:47:13.863Z,69.08
2015-12-23T08:48:13.819Z,69.18
2015-12-23T08:49:13.791Z,68.79
2015-12-23T08:50:13.777Z,68.92
2015-12-23T08:51:13.811Z,68.92
2015-12-23T08:52:13.702Z,69.5
2015-12-23T08:53:13.674Z,69.4
2015-12-23T08:54:13.645Z,69.69
2015-12-23T08:55:13.632Z,70.56
2015-12-23T08:56:13.588Z,71.04
2015-12-23T08:57:13.606Z,70.65
2015-12-23T08:58:13.530Z,70.65
2015-12-23T08:59:13.518Z,70.17
2015-12-23T09:00:13.458Z,69.69
2015-12-23T09:01:13.460Z,69.82
2015-12-23T09:02:13.416Z,70.59
2015-12-23T09:03:13.404Z,70.4
2015-12-23T09:04:13.344Z,70.3
2015-12-23T09:05:13.332Z,70.82
2015-12-23T09:06:13.287Z,71.01
2015-12-23T09:07:13.274Z,70.72
2015-12-23T09:08:13.308Z,71.78
2015-12-23T09:09:13.217Z,71.49
2015-12-23T09:10:13.188Z,70.72
2015-12-23T09:11:13.457Z,71.11
2015-12-23T09:12:13.179Z,70.92
2015-12-23T09:13:13.087Z,71.2
2015-12-23T09:14:13.059Z,70.92
2015-12-23T09:15:13.046Z,71.01
2015-12-23T09:16:13.001Z,71.01
2015-12-23T09:17:12.974Z,71.75
2015-12-23T09:18:12.946Z,71.75
2015-12-23T09:19:12.917Z,72.03
2015-12-23T09:20:12.888Z,71.65
2015-12-23T09:21:12.860Z,72.03
2015-12-23T09:22:12.832Z,71.75
2015-12-23T09:23:12.818Z,71.84
2015-12-23T09:24:12.790Z,71.75
2015-12-23T09:25:12.745Z,72.32
2015-12-23T09:26:12.717Z,72.03
2015-12-23T09:27:12.689Z,71.84
2015-12-23T09:28:12.660Z,71.65
2015-12-23T09:29:12.632Z,72.03
2015-12-23T09:30:12.603Z,72.03
2015-12-23T09:31:12.184Z,71.84
2015-12-23T09:32:12.530Z,71.75
2015-12-23T09:33:12.518Z,72.13
2015-12-23T09:34:12.473Z,72.03
2015-12-23T09:35:12.461Z,71.81
2015-12-23T09:36:12.431Z,71.61
2015-12-23T09:37:12.434Z,71.55
2015-12-23T09:38:12.453Z,71.84
2015-12-23T09:39:12.330Z,71.23
2015-12-23T09:40:12.317Z,71.65
2015-12-23T09:41:12.305Z,71.71
2015-12-23T09:42:12.245Z,71.61
2015-12-23T09:43:12.247Z,71.14
2015-12-23T09:44:12.203Z,70.98
2015-12-23T09:45:12.175Z,70.98
2015-12-23T09:46:12.147Z,71.08
2015-12-23T09:47:12.102Z,71.23
2015-12-23T09:48:12.105Z,71.33
2015-12-23T09:49:12.042Z,70.98
2015-12-23T09:50:12.029Z,70.98
2015-12-23T09:51:12.032Z,70.94
2015-12-23T09:52:11.972Z,70.88
2015-12-23T09:53:11.944Z,70.88
2015-12-23T09:54:11.899Z,70.59
2015-12-23T09:55:11.872Z,70.68
2015-12-23T09:56:11.875Z,70.68
2015-12-23T09:57:11.814Z,70.46
2015-12-23T09:58:11.785Z,70.78
2015-12-23T09:59:11.757Z,71.08
2015-12-23T10:00:11.744Z,71.42
2015-12-23T10:01:11.699Z,71.08
2015-12-23T10:02:11.673Z,70.59
2015-12-23T10:03:11.628Z,71.08
2015-12-23T10:04:11.616Z,70.68
2015-12-23T10:05:11.586Z,70.59
2015-12-23T10:06:11.543Z,70.78
2015-12-23T10:07:11.530Z,70.59
2015-12-23T10:08:11.502Z,70.5
2015-12-23T10:09:11.504Z,71.08
2015-12-23T10:10:11.460Z,70.98
2015-12-23T10:11:11.416Z,70.5
2015-12-23T10:12:11.388Z,71.08
2015-12-23T10:13:11.547Z,71.08
2015-12-23T10:14:11.315Z,70.59
2015-12-23T10:15:11.301Z,70.21
2015-12-23T10:16:11.273Z,70.3
2015-12-23T10:17:11.244Z,70.68
2015-12-23T10:18:11.201Z,70.3
2015-12-23T10:19:11.172Z,70.5
2015-12-23T10:20:11.160Z,70.5
2015-12-23T10:21:14.162Z,70.98
2015-12-23T10:22:11.102Z,70.21
2015-12-23T10:23:11.058Z,70.21
2015-12-23T10:24:11.154Z,70.3
2015-12-23T10:25:11.001Z,70.21
2015-12-23T10:26:10.972Z,70.5
2015-12-23T10:27:10.975Z,70.21
2015-12-23T10:28:10.915Z,70.3
2015-12-23T10:29:10.887Z,70.11
2015-12-23T10:30:10.920Z,70.21
2015-12-23T10:31:10.829Z,70.3
2015-12-23T10:32:10.801Z,70.4
2015-12-23T10:33:10.773Z,70.4
2015-12-23T10:34:10.728Z,70.21
2015-12-23T10:35:10.715Z,70.3
2015-12-23T10:36:10.687Z,70.01
2015-12-23T10:37:10.658Z,70.5
2015-12-23T10:38:10.631Z,70.68
2015-12-23T10:39:10.602Z,70.46
2015-12-23T10:40:10.589Z,70.11
2015-12-23T10:41:10.794Z,70.59
2015-12-23T10:42:10.517Z,70.5
2015-12-23T10:43:10.487Z,70.68
2015-12-23T10:44:10.459Z,70.5
2015-12-23T10:45:10.430Z,70.68
2015-12-23T10:46:10.387Z,71.08
2015-12-23T10:47:12.937Z,71.08
2015-12-23T10:48:13.376Z,70.3
2015-12-23T10:49:10.331Z,70.4
2015-12-23T10:50:10.272Z,70.59
2015-12-23T10:51:10.275Z,70.21
2015-12-23T10:52:10.215Z,70.3
2015-12-23T10:53:10.186Z,70.4
2015-12-23T10:54:10.158Z,70.3
2015-12-23T10:55:10.145Z,70.5
2015-12-23T10:56:10.132Z,70.5
2015-12-23T10:57:10.085Z,70.59
2015-12-23T10:58:10.058Z,70.4
2015-12-23T10:59:10.014Z,70.59
2015-12-23T11:00:10.000Z,70.27
2015-12-23T11:01:09.972Z,70.17
2015-12-23T11:02:09.927Z,70.17
2015-12-23T11:03:09.899Z,70.46
2015-12-23T11:04:09.902Z,70.46
2015-12-23T11:05:09.841Z,70.56
2015-12-23T11:06:09.813Z,71.04
2015-12-23T11:07:09.785Z,70.46
2015-12-23T11:08:09.755Z,71.14
2015-12-23T11:09:09.743Z,70.3
2015-12-23T11:10:09.699Z,70.4
2015-12-23T11:11:09.686Z,70.17
2015-12-23T11:12:09.641Z,70.27
2015-12-23T11:13:09.676Z,70.21
2015-12-23T11:14:09.601Z,70.5
2015-12-23T11:15:09.556Z,70.59
2015-12-23T11:16:09.528Z,71.08
2015-12-23T11:17:09.515Z,70.5
2015-12-23T11:18:09.455Z,70.59
2015-12-23T11:19:09.426Z,70.5
2015-12-23T11:20:09.835Z,69.92
2015-12-23T11:21:09.573Z,69.73
2015-12-23T11:22:09.748Z,69.82
2015-12-23T11:23:09.687Z,69.53
2015-12-23T11:24:09.519Z,69.06
2015-12-23T11:25:09.521Z,69.34
2015-12-23T11:26:09.368Z,68.57
2015-12-23T11:27:09.339Z,68.67
2015-12-23T11:28:09.545Z,68.86
2015-12-23T11:29:09.329Z,69.06
2015-12-23T11:30:09.488Z,69.44
2015-12-23T11:31:09.241Z,69.53
2015-12-23T11:32:12.228Z,69.63
2015-12-23T11:33:09.293Z,69.53
2015-12-23T11:34:09.187Z,69.34
2015-12-23T11:35:09.237Z,69.15
2015-12-23T11:36:09.442Z,69.34
2015-12-23T11:37:09.007Z,69.15
2015-12-23T11:38:12.087Z,69.63
2015-12-23T11:39:09.029Z,69.06
2015-12-23T11:40:09.109Z,69.53
2015-12-23T11:41:08.956Z,69.15
2015-12-23T11:42:08.928Z,69.24
2015-12-23T11:43:09.148Z,69.34
2015-12-23T11:44:09.026Z,68.96
2015-12-23T11:45:08.904Z,69.15
2015-12-23T11:46:08.032Z,68.96
2015-12-23T11:47:08.832Z,68.86
2015-12-23T11:48:08.772Z,69.15
2015-12-23T11:49:11.743Z,69.15
2015-12-23T11:50:08.684Z,68.48
2015-12-23T11:51:08.734Z,68.48
2015-12-23T11:52:08.548Z,67.83
2015-12-23T11:53:08.567Z,67.26
2015-12-23T11:54:08.616Z,66.49
2015-12-23T11:55:08.666Z,66.42
2015-12-23T11:56:08.747Z,66.62
2015-12-23T11:57:08.591Z,66.33
2015-12-23T11:58:08.500Z,66.52
2015-12-23T11:59:08.471Z,66.52
2015-12-23T12:00:08.770Z,66.49
2015-12-23T12:01:08.445Z,65.94
2015-12-23T12:02:08.791Z,65.37
2015-12-23T12:03:08.700Z,65.46
2015-12-23T12:04:08.297Z,65.37
2015-12-23T12:05:08.487Z,65.4
2015-12-23T12:06:08.397Z,65.4
2015-12-23T12:07:08.211Z,65.11
2015-12-23T12:08:08.230Z,65.5
2015-12-23T12:09:08.107Z,65.94
2015-12-23T12:10:08.219Z,65.56
2015-12-23T12:11:08.191Z,65.37
2015-12-23T12:12:07.975Z,65.56
2015-12-23T12:13:08.088Z,65.56
2015-12-23T12:14:08.044Z,65.85
2015-12-23T12:15:08.015Z,65.75
2015-12-23T12:16:08.079Z,65.27
2015-12-23T12:17:07.973Z,65.17
2015-12-23T12:18:07.976Z,65.08
2015-12-23T12:19:08.041Z,65.3
2015-12-23T12:20:07.888Z,65.37
2015-12-23T12:21:07.812Z,65.2
2015-12-23T12:22:07.768Z,64.73
2015-12-23T12:23:07.771Z,64.82
2015-12-23T12:24:07.743Z,64.92
2015-12-23T12:25:07.714Z,64.34
2015-12-23T12:26:07.716Z,64.34
2015-12-23T12:27:07.766Z,64.15
2015-12-23T12:28:07.644Z,64.63
2015-12-23T12:29:07.631Z,64.34
2015-12-23T12:30:07.618Z,63.57
2015-12-23T12:31:07.526Z,64.25
2015-12-23T12:32:07.576Z,64.15
2015-12-23T12:33:07.423Z,65.11
2015-12-23T12:34:07.488Z,65.27
2015-12-23T12:35:07.445Z,65.08
2015-12-23T12:36:07.431Z,65.05
2015-12-23T12:37:07.371Z,65.46
2015-12-23T12:38:07.296Z,65.08
2015-12-23T12:39:10.502Z,64.89
2015-12-23T12:40:07.348Z,64.89
2015-12-23T12:41:07.304Z,64.79
2015-12-23T12:42:07.182Z,64.69
2015-12-23T12:43:07.200Z,64.12
2015-12-23T12:44:07.156Z,64.21
2015-12-23T12:45:07.409Z,63.67
2015-12-23T12:46:07.131Z,63.38
2015-12-23T12:47:07.103Z,63.76
2015-12-23T12:48:07.073Z,63.38
2015-12-23T12:49:07.014Z,62.9
2015-12-23T12:50:07.236Z,63.47
2015-12-23T12:51:07.785Z,63.28
2015-12-23T12:52:06.942Z,63.47
2015-12-23T12:53:06.820Z,63.18
2015-12-23T12:54:10.590Z,63.67
2015-12-23T12:55:07.059Z,63.64
2015-12-23T12:56:06.750Z,63.67
2015-12-23T12:57:06.831Z,64.15
2015-12-23T12:58:06.692Z,64.12
2015-12-23T12:59:06.647Z,64.21